Forever Young — ZCD18 — position and weather

sailwx.info

Track history (hours):
 
Tides and Currents Weather Stations Pressure Air Temp Water Temp Dewpoint Dewpoint Depression Visibility Wind Speed Wind Dir Waves Ship Positions

Forever Young

Last reported at 2018-Jan-31 20:50 UTC. Time now 2018-Feb-21 15:32 UTC.
Position N 16°20' W 061°48'.
Warning: this ship's position is 20 days out of date.

Length 20 m.

Type: Pleasure craft. MMSI: 310410000.

Date/timePositionNaut miles runAvg speedWind from/ knotsBaromVisibWave heightAir tempDewpointWater temp
2018-Jan-31 20:50N 16°20' W 061°48'3 9.1
2018-Jan-31 20:28N 16°24' W 061°49'5 9.4
2018-Jan-31 19:58N 16°28' W 061°49'4 9.5
2018-Jan-31 19:30N 16°33' W 061°50'5 9.2
2018-Jan-31 18:58N 16°37' W 061°51'4 9.2
2018-Jan-31 18:30N 16°42' W 061°52'5 8.9
2018-Jan-31 18:00N 16°46' W 061°53'4 9.0
2018-Jan-31 17:30N 16°50' W 061°53'4 8.7
2018-Jan-31 17:00N 16°55' W 061°54'4 7.9
2018-Jan-31 16:30N 16°59' W 061°55'5 7.3
2018-Jan-31 15:51N 17°03' W 061°55'1 3.8
2018-Jan-31 15:30N 17°05' W 061°54'0 0.0
2018-Jan-31 15:00N 17°05' W 061°54'0 0.0
2018-Jan-31 14:30N 17°05' W 061°54'0 0.0
2018-Jan-31 13:00N 17°05' W 061°54'0 0.0
2018-Jan-30 22:33N 17°05' W 061°54'0 0.2
2018-Jan-30 22:30N 17°05' W 061°54'2 1.8
2018-Jan-30 21:28N 17°03' W 061°55'1 2.0
2018-Jan-30 21:00N 17°04' W 061°55'2 1.4
2018-Jan-30 19:51N 17°04' W 061°53'  
2018-Jan-26 21:14N 17°05' W 061°54'1 2.6
2018-Jan-26 21:00N 17°05' W 061°55'3 6.2
2018-Jan-26 20:30N 17°08' W 061°54'4 7.8
2018-Jan-26 20:00N 17°10' W 061°51'3 7.0
2018-Jan-26 19:30N 17°10' W 061°47'  
2018-Jan-24 14:05N 17°09' W 061°46'0 0.0
2018-Jan-24 13:59N 17°09' W 061°46'1 2.0
2018-Jan-24 13:30N 17°09' W 061°45'1 0.0
2018-Jan-22 21:10N 17°09' W 061°44'0 0.0
2018-Jan-22 20:58N 17°09' W 061°44'1 1.6
2018-Jan-22 20:30N 17°09' W 061°45'1 1.9
2018-Jan-22 19:59N 17°08' W 061°45'  
Track history (hours):
 
Tides and Currents Weather Stations Pressure Air Temp Water Temp Dewpoint Dewpoint Depression Visibility Wind Speed Wind Dir Waves Ship Positions

Forever Young

Last reported at 2018-Jan-31 20:50 UTC. Time now 2018-Feb-21 15:32 UTC.
Position N 16°20' W 061°48'.
Warning: this ship's position is 20 days out of date.

Length 20 m.

Type: Pleasure craft. MMSI: 310410000.

Date/timePositionNaut miles runAvg speedWind from/ knotsBaromVisibWave heightAir tempDewpointWater temp
2018-Jan-31 20:50N 16°20' W 061°48'3 9.1
2018-Jan-31 20:28N 16°24' W 061°49'5 9.4
2018-Jan-31 19:58N 16°28' W 061°49'4 9.5
2018-Jan-31 19:30N 16°33' W 061°50'5 9.2
2018-Jan-31 18:58N 16°37' W 061°51'4 9.2
2018-Jan-31 18:30N 16°42' W 061°52'5 8.9
2018-Jan-31 18:00N 16°46' W 061°53'4 9.0
2018-Jan-31 17:30N 16°50' W 061°53'4 8.7
2018-Jan-31 17:00N 16°55' W 061°54'4 7.9
2018-Jan-31 16:30N 16°59' W 061°55'5 7.3
2018-Jan-31 15:51N 17°03' W 061°55'1 3.8
2018-Jan-31 15:30N 17°05' W 061°54'0 0.0
2018-Jan-31 15:00N 17°05' W 061°54'0 0.0
2018-Jan-31 14:30N 17°05' W 061°54'0 0.0
2018-Jan-31 13:00N 17°05' W 061°54'0 0.0
2018-Jan-30 22:33N 17°05' W 061°54'0 0.2
2018-Jan-30 22:30N 17°05' W 061°54'2 1.8
2018-Jan-30 21:28N 17°03' W 061°55'1 2.0
2018-Jan-30 21:00N 17°04' W 061°55'2 1.4
2018-Jan-30 19:51N 17°04' W 061°53'  
2018-Jan-26 21:14N 17°05' W 061°54'1 2.6
2018-Jan-26 21:00N 17°05' W 061°55'3 6.2
2018-Jan-26 20:30N 17°08' W 061°54'4 7.8
2018-Jan-26 20:00N 17°10' W 061°51'3 7.0
2018-Jan-26 19:30N 17°10' W 061°47'  
2018-Jan-24 14:05N 17°09' W 061°46'0 0.0
2018-Jan-24 13:59N 17°09' W 061°46'1 2.0
2018-Jan-24 13:30N 17°09' W 061°45'1 0.0
2018-Jan-22 21:10N 17°09' W 061°44'0 0.0
2018-Jan-22 20:58N 17°09' W 061°44'1 1.6
2018-Jan-22 20:30N 17°09' W 061°45'1 1.9
2018-Jan-22 19:59N 17°08' W 061°45'  

Dump ship's entire track history